sensor_id;sensor_type;location;lat;lon;timestamp;pressure;altitude;pressure_sealevel;temperature;humidity
16451;BME280;12243;42.708;23.310;2023-08-20T00:02:16;95281.56;;;23.85;61.84
16451;BME280;12243;42.708;23.310;2023-08-20T00:04:45;95285.66;;;23.81;61.93
16451;BME280;12243;42.708;23.310;2023-08-20T00:07:13;95282.34;;;23.65;62.33
16451;BME280;12243;42.708;23.310;2023-08-20T00:09:41;95278.28;;;23.69;62.29
16451;BME280;12243;42.708;23.310;2023-08-20T00:12:09;95274.59;;;23.70;62.38
16451;BME280;12243;42.708;23.310;2023-08-20T00:14:52;95275.84;;;23.74;62.48
16451;BME280;12243;42.708;23.310;2023-08-20T00:17:21;95277.25;;;23.70;62.44
16451;BME280;12243;42.708;23.310;2023-08-20T00:19:50;95274.56;;;23.57;62.75
16451;BME280;12243;42.708;23.310;2023-08-20T00:22:18;95277.19;;;23.44;63.01
16451;BME280;12243;42.708;23.310;2023-08-20T00:24:45;95286.00;;;23.44;63.37
16451;BME280;12243;42.708;23.310;2023-08-20T00:27:13;95279.88;;;23.44;63.36
16451;BME280;12243;42.708;23.310;2023-08-20T00:29:40;95277.38;;;23.42;63.64
16451;BME280;12243;42.708;23.310;2023-08-20T00:32:07;95286.81;;;23.45;63.60
16451;BME280;12243;42.708;23.310;2023-08-20T00:34:34;95283.13;;;23.46;63.51
16451;BME280;12243;42.708;23.310;2023-08-20T00:37:01;95275.78;;;23.48;63.14
16451;BME280;12243;42.708;23.310;2023-08-20T00:39:28;95276.81;;;23.47;63.35
16451;BME280;12243;42.708;23.310;2023-08-20T00:41:55;95276.56;;;23.35;63.87
16451;BME280;12243;42.708;23.310;2023-08-20T00:44:25;95279.22;;;23.35;63.45
16451;BME280;12243;42.708;23.310;2023-08-20T00:46:51;95274.50;;;23.24;64.08
16451;BME280;12243;42.708;23.310;2023-08-20T00:49:19;95276.34;;;23.23;64.30
16451;BME280;12243;42.708;23.310;2023-08-20T00:51:47;95270.03;;;23.38;63.53
16451;BME280;12243;42.708;23.310;2023-08-20T00:54:14;95279.88;;;23.44;63.27
16451;BME280;12243;42.708;23.310;2023-08-20T00:56:42;95280.06;;;23.49;63.16
16451;BME280;12243;42.708;23.310;2023-08-20T00:59:09;95279.03;;;23.37;63.49
16451;BME280;12243;42.708;23.310;2023-08-20T01:01:38;95277.78;;;23.33;63.62
16451;BME280;12243;42.708;23.310;2023-08-20T01:04:05;95273.47;;;23.32;63.88
16451;BME280;12243;42.708;23.310;2023-08-20T01:06:40;95270.00;;;23.31;63.58
16451;BME280;12243;42.708;23.310;2023-08-20T01:09:15;95270.41;;;23.28;64.07
16451;BME280;12243;42.708;23.310;2023-08-20T01:11:51;95263.09;;;23.37;63.70
16451;BME280;12243;42.708;23.310;2023-08-20T01:14:20;95268.84;;;23.53;62.86
16451;BME280;12243;42.708;23.310;2023-08-20T01:16:49;95275.97;;;23.53;62.82
16451;BME280;12243;42.708;23.310;2023-08-20T01:19:17;95271.50;;;23.53;62.82
16451;BME280;12243;42.708;23.310;2023-08-20T01:21:52;95275.78;;;23.48;63.20
16451;BME280;12243;42.708;23.310;2023-08-20T01:24:33;95268.59;;;23.42;63.38
16451;BME280;12243;42.708;23.310;2023-08-20T01:27:19;95265.53;;;23.45;63.39
16451;BME280;12243;42.708;23.310;2023-08-20T01:29:54;95266.78;;;23.49;62.92
16451;BME280;12243;42.708;23.310;2023-08-20T01:32:24;95269.22;;;23.44;63.20
16451;BME280;12243;42.708;23.310;2023-08-20T01:34:52;95264.13;;;23.49;63.04
16451;BME280;12243;42.708;23.310;2023-08-20T01:37:19;95266.59;;;23.50;63.08
16451;BME280;12243;42.708;23.310;2023-08-20T01:39:48;95263.69;;;23.45;63.43
16451;BME280;12243;42.708;23.310;2023-08-20T01:42:15;95261.41;;;23.36;63.30
16451;BME280;12243;42.708;23.310;2023-08-20T01:44:42;95257.34;;;23.33;63.72
16451;BME280;12243;42.708;23.310;2023-08-20T01:47:10;95250.78;;;23.36;63.60
16451;BME280;12243;42.708;23.310;2023-08-20T01:49:37;95249.56;;;23.38;63.32
16451;BME280;12243;42.708;23.310;2023-08-20T01:52:04;95250.41;;;23.45;63.29
16451;BME280;12243;42.708;23.310;2023-08-20T01:54:31;95233.63;;;23.38;63.25
16451;BME280;12243;42.708;23.310;2023-08-20T01:56:58;95233.22;;;23.35;63.96
16451;BME280;12243;42.708;23.310;2023-08-20T01:59:24;95234.84;;;23.36;63.29
16451;BME280;12243;42.708;23.310;2023-08-20T02:01:51;95231.78;;;23.39;63.88
16451;BME280;12243;42.708;23.310;2023-08-20T02:04:19;95235.91;;;23.48;63.21
16451;BME280;12243;42.708;23.310;2023-08-20T02:06:46;95232.00;;;23.44;63.15
16451;BME280;12243;42.708;23.310;2023-08-20T02:09:13;95229.56;;;23.49;63.26
16451;BME280;12243;42.708;23.310;2023-08-20T02:11:40;95229.34;;;23.37;63.69
16451;BME280;12243;42.708;23.310;2023-08-20T02:14:07;95229.94;;;23.33;63.90
16451;BME280;12243;42.708;23.310;2023-08-20T02:16:34;95216.25;;;23.22;64.25
16451;BME280;12243;42.708;23.310;2023-08-20T02:19:02;95215.16;;;23.10;64.63
16451;BME280;12243;42.708;23.310;2023-08-20T02:21:32;95217.44;;;23.13;64.36
16451;BME280;12243;42.708;23.310;2023-08-20T02:23:59;95212.75;;;23.15;64.48
16451;BME280;12243;42.708;23.310;2023-08-20T02:26:26;95214.16;;;23.18;64.51
16451;BME280;12243;42.708;23.310;2023-08-20T02:28:53;95222.56;;;23.21;64.26
16451;BME280;12243;42.708;23.310;2023-08-20T02:31:20;95218.84;;;23.09;64.47
16451;BME280;12243;42.708;23.310;2023-08-20T02:33:47;95216.81;;;23.18;64.33
16451;BME280;12243;42.708;23.310;2023-08-20T02:36:14;95219.50;;;23.24;64.22
16451;BME280;12243;42.708;23.310;2023-08-20T02:38:44;95226.28;;;23.34;63.75
16451;BME280;12243;42.708;23.310;2023-08-20T02:41:11;95228.53;;;23.37;63.57
16451;BME280;12243;42.708;23.310;2023-08-20T02:43:38;95225.25;;;23.35;63.66
16451;BME280;12243;42.708;23.310;2023-08-20T02:46:06;95235.66;;;23.29;64.11
16451;BME280;12243;42.708;23.310;2023-08-20T02:48:33;95227.88;;;23.28;64.40
16451;BME280;12243;42.708;23.310;2023-08-20T02:51:00;95227.88;;;23.21;64.92
16451;BME280;12243;42.708;23.310;2023-08-20T02:53:28;95232.59;;;23.19;65.16
16451;BME280;12243;42.708;23.310;2023-08-20T02:55:56;95232.53;;;23.06;65.58
16451;BME280;12243;42.708;23.310;2023-08-20T02:58:23;95233.53;;;22.98;66.06
16451;BME280;12243;42.708;23.310;2023-08-20T03:00:50;95241.84;;;22.89;66.54
16451;BME280;12243;42.708;23.310;2023-08-20T03:03:16;95246.03;;;22.70;67.35
16451;BME280;12243;42.708;23.310;2023-08-20T03:05:44;95248.41;;;22.51;68.12
16451;BME280;12243;42.708;23.310;2023-08-20T03:08:10;95244.75;;;22.52;68.63
16451;BME280;12243;42.708;23.310;2023-08-20T03:10:37;95243.41;;;22.28;69.88
16451;BME280;12243;42.708;23.310;2023-08-20T03:13:06;95250.94;;;22.03;70.85
16451;BME280;12243;42.708;23.310;2023-08-20T03:15:32;95250.75;;;21.77;71.90
16451;BME280;12243;42.708;23.310;2023-08-20T03:17:59;95253.88;;;21.59;72.78
16451;BME280;12243;42.708;23.310;2023-08-20T03:20:26;95248.25;;;21.47;73.64
16451;BME280;12243;42.708;23.310;2023-08-20T03:22:54;95242.00;;;21.55;73.57
16451;BME280;12243;42.708;23.310;2023-08-20T03:25:20;95245.72;;;21.60;73.22
16451;BME280;12243;42.708;23.310;2023-08-20T03:27:47;95251.91;;;21.68;73.36
16451;BME280;12243;42.708;23.310;2023-08-20T03:30:16;95249.16;;;21.82;72.87
16451;BME280;12243;42.708;23.310;2023-08-20T03:32:44;95243.84;;;21.82;72.59
16451;BME280;12243;42.708;23.310;2023-08-20T03:35:11;95249.34;;;21.81;73.01
16451;BME280;12243;42.708;23.310;2023-08-20T03:37:37;95241.47;;;21.87;72.39
16451;BME280;12243;42.708;23.310;2023-08-20T03:40:05;95246.00;;;21.94;72.74
16451;BME280;12243;42.708;23.310;2023-08-20T03:42:32;95240.69;;;21.94;72.17
16451;BME280;12243;42.708;23.310;2023-08-20T03:44:59;95241.94;;;21.98;72.17
16451;BME280;12243;42.708;23.310;2023-08-20T03:47:27;95241.34;;;22.02;72.45
16451;BME280;12243;42.708;23.310;2023-08-20T03:49:55;95231.03;;;22.14;72.08
16451;BME280;12243;42.708;23.310;2023-08-20T03:52:22;95240.00;;;22.13;71.87
16451;BME280;12243;42.708;23.310;2023-08-20T03:54:49;95228.72;;;22.32;71.08
16451;BME280;12243;42.708;23.310;2023-08-20T03:57:16;95233.09;;;22.47;70.48
16451;BME280;12243;42.708;23.310;2023-08-20T03:59:43;95228.38;;;22.49;70.09
16451;BME280;12243;42.708;23.310;2023-08-20T04:02:13;95230.66;;;22.52;70.21
16451;BME280;12243;42.708;23.310;2023-08-20T04:04:41;95226.78;;;22.54;70.26
16451;BME280;12243;42.708;23.310;2023-08-20T04:07:08;95232.78;;;22.63;69.69
16451;BME280;12243;42.708;23.310;2023-08-20T04:09:35;95229.72;;;22.73;70.02
16451;BME280;12243;42.708;23.310;2023-08-20T04:12:03;95221.63;;;22.88;69.30
16451;BME280;12243;42.708;23.310;2023-08-20T04:14:30;95228.66;;;23.02;68.66
16451;BME280;12243;42.708;23.310;2023-08-20T04:16:56;95231.56;;;23.20;67.91
16451;BME280;12243;42.708;23.310;2023-08-20T04:19:23;95231.59;;;23.34;67.46
16451;BME280;12243;42.708;23.310;2023-08-20T04:21:52;95230.41;;;23.69;65.73
16451;BME280;12243;42.708;23.310;2023-08-20T04:24:18;95230.84;;;23.99;65.05
16451;BME280;12243;42.708;23.310;2023-08-20T04:26:46;95229.97;;;24.12;64.14
16451;BME280;12243;42.708;23.310;2023-08-20T04:29:16;95234.47;;;24.18;63.86
16451;BME280;12243;42.708;23.310;2023-08-20T04:31:44;95234.25;;;24.27;63.34
16451;BME280;12243;42.708;23.310;2023-08-20T04:34:11;95235.69;;;24.36;63.03
16451;BME280;12243;42.708;23.310;2023-08-20T04:36:43;95239.38;;;24.55;62.60
16451;BME280;12243;42.708;23.310;2023-08-20T04:39:12;95237.41;;;24.82;61.83
16451;BME280;12243;42.708;23.310;2023-08-20T04:41:44;95244.25;;;25.09;60.85
16451;BME280;12243;42.708;23.310;2023-08-20T04:44:14;95240.78;;;25.15;60.61
16451;BME280;12243;42.708;23.310;2023-08-20T04:46:42;95245.97;;;25.42;59.82
16451;BME280;12243;42.708;23.310;2023-08-20T04:49:10;95244.56;;;25.64;59.11
16451;BME280;12243;42.708;23.310;2023-08-20T04:51:38;95249.03;;;25.71;58.95
16451;BME280;12243;42.708;23.310;2023-08-20T04:54:05;95246.94;;;25.79;58.42
16451;BME280;12243;42.708;23.310;2023-08-20T04:56:33;95247.34;;;25.76;58.44
16451;BME280;12243;42.708;23.310;2023-08-20T04:59:00;95253.97;;;25.74;58.64
16451;BME280;12243;42.708;23.310;2023-08-20T05:01:56;95246.97;;;25.73;58.31
16451;BME280;12243;42.708;23.310;2023-08-20T05:04:37;95245.94;;;25.74;58.37
16451;BME280;12243;42.708;23.310;2023-08-20T05:07:04;95255.59;;;25.75;58.68
16451;BME280;12243;42.708;23.310;2023-08-20T05:09:31;95248.53;;;25.87;58.16
16451;BME280;12243;42.708;23.310;2023-08-20T05:11:59;95245.97;;;25.99;57.79
16451;BME280;12243;42.708;23.310;2023-08-20T05:14:26;95252.47;;;26.09;57.63
16451;BME280;12243;42.708;23.310;2023-08-20T05:16:53;95252.78;;;26.20;57.58
16451;BME280;12243;42.708;23.310;2023-08-20T05:19:20;95255.09;;;26.34;57.12
16451;BME280;12243;42.708;23.310;2023-08-20T05:21:47;95255.47;;;26.38;56.85
16451;BME280;12243;42.708;23.310;2023-08-20T05:24:15;95258.59;;;26.35;57.44
16451;BME280;12243;42.708;23.310;2023-08-20T05:26:42;95256.41;;;26.69;56.11
16451;BME280;12243;42.708;23.310;2023-08-20T05:29:10;95259.59;;;26.77;55.84
16451;BME280;12243;42.708;23.310;2023-08-20T05:31:37;95258.78;;;26.77;55.52
16451;BME280;12243;42.708;23.310;2023-08-20T05:34:05;95261.91;;;26.92;54.98
16451;BME280;12243;42.708;23.310;2023-08-20T05:36:32;95262.28;;;26.96;55.27
16451;BME280;12243;42.708;23.310;2023-08-20T05:38:59;95266.19;;;27.12;55.37
16451;BME280;12243;42.708;23.310;2023-08-20T05:41:26;95265.53;;;27.35;54.08
16451;BME280;12243;42.708;23.310;2023-08-20T05:43:54;95272.72;;;27.34;53.83
16451;BME280;12243;42.708;23.310;2023-08-20T05:46:22;95271.81;;;27.40;53.95
16451;BME280;12243;42.708;23.310;2023-08-20T05:48:49;95266.41;;;27.59;53.40
16451;BME280;12243;42.708;23.310;2023-08-20T05:51:16;95271.44;;;27.97;52.49
16451;BME280;12243;42.708;23.310;2023-08-20T05:53:43;95275.41;;;28.18;51.97
16451;BME280;12243;42.708;23.310;2023-08-20T05:56:09;95271.13;;;28.29;50.79
16451;BME280;12243;42.708;23.310;2023-08-20T05:58:36;95269.50;;;28.51;50.41
16451;BME280;12243;42.708;23.310;2023-08-20T06:01:04;95266.09;;;28.79;49.40
16451;BME280;12243;42.708;23.310;2023-08-20T06:03:32;95261.38;;;29.10;48.88
16451;BME280;12243;42.708;23.310;2023-08-20T06:05:59;95270.22;;;29.22;48.45
16451;BME280;12243;42.708;23.310;2023-08-20T06:08:26;95269.75;;;29.54;47.54
16451;BME280;12243;42.708;23.310;2023-08-20T06:10:53;95272.75;;;29.57;47.38
16451;BME280;12243;42.708;23.310;2023-08-20T06:13:19;95267.34;;;29.40;48.22
16451;BME280;12243;42.708;23.310;2023-08-20T06:15:46;95267.16;;;29.30;48.42
16451;BME280;12243;42.708;23.310;2023-08-20T06:18:13;95274.22;;;29.08;49.29
16451;BME280;12243;42.708;23.310;2023-08-20T06:20:42;95277.78;;;29.54;48.17
16451;BME280;12243;42.708;23.310;2023-08-20T06:23:08;95283.41;;;29.81;47.16
16451;BME280;12243;42.708;23.310;2023-08-20T06:25:35;95277.88;;;29.87;46.61
16451;BME280;12243;42.708;23.310;2023-08-20T06:28:02;95282.84;;;30.12;45.91
16451;BME280;12243;42.708;23.310;2023-08-20T06:30:30;95277.75;;;30.45;45.75
16451;BME280;12243;42.708;23.310;2023-08-20T06:32:57;95278.19;;;30.75;44.99
16451;BME280;12243;42.708;23.310;2023-08-20T06:35:23;95276.59;;;30.96;44.23
16451;BME280;12243;42.708;23.310;2023-08-20T06:37:52;95276.13;;;31.21;43.86
16451;BME280;12243;42.708;23.310;2023-08-20T06:40:18;95273.97;;;31.23;43.58
16451;BME280;12243;42.708;23.310;2023-08-20T06:42:45;95275.84;;;31.45;43.07
16451;BME280;12243;42.708;23.310;2023-08-20T06:45:12;95278.22;;;31.63;42.77
16451;BME280;12243;42.708;23.310;2023-08-20T06:47:39;95277.06;;;31.86;42.36
16451;BME280;12243;42.708;23.310;2023-08-20T06:50:06;95275.25;;;32.19;42.17
16451;BME280;12243;42.708;23.310;2023-08-20T06:52:33;95277.66;;;32.20;41.73
16451;BME280;12243;42.708;23.310;2023-08-20T06:55:01;95275.28;;;32.24;41.59
16451;BME280;12243;42.708;23.310;2023-08-20T06:57:28;95276.56;;;32.16;40.85
16451;BME280;12243;42.708;23.310;2023-08-20T06:59:55;95281.38;;;32.09;41.30
16451;BME280;12243;42.708;23.310;2023-08-20T07:02:22;95279.34;;;32.26;41.06
16451;BME280;12243;42.708;23.310;2023-08-20T07:04:49;95270.94;;;32.55;39.88
16451;BME280;12243;42.708;23.310;2023-08-20T07:07:16;95276.97;;;32.67;39.66
16451;BME280;12243;42.708;23.310;2023-08-20T07:09:42;95268.03;;;32.62;39.53
16451;BME280;12243;42.708;23.310;2023-08-20T07:12:11;95278.59;;;32.73;38.93
16451;BME280;12243;42.708;23.310;2023-08-20T07:14:40;95272.97;;;32.75;38.96
16451;BME280;12243;42.708;23.310;2023-08-20T07:17:06;95264.88;;;32.80;39.41
16451;BME280;12243;42.708;23.310;2023-08-20T07:19:33;95278.06;;;32.71;38.90
16451;BME280;12243;42.708;23.310;2023-08-20T07:22:00;95268.03;;;32.62;38.41
16451;BME280;12243;42.708;23.310;2023-08-20T07:24:27;95268.22;;;32.50;38.36
16451;BME280;12243;42.708;23.310;2023-08-20T07:26:55;95265.78;;;32.48;38.63
16451;BME280;12243;42.708;23.310;2023-08-20T07:29:28;95264.97;;;32.48;38.88
16451;BME280;12243;42.708;23.310;2023-08-20T07:31:55;95279.47;;;32.42;38.72
16451;BME280;12243;42.708;23.310;2023-08-20T07:34:22;95278.47;;;32.21;38.90
16451;BME280;12243;42.708;23.310;2023-08-20T07:36:49;95270.78;;;32.02;39.14
16451;BME280;12243;42.708;23.310;2023-08-20T07:39:16;95272.16;;;31.78;39.47
16451;BME280;12243;42.708;23.310;2023-08-20T07:41:43;95270.56;;;31.55;40.11
16451;BME280;12243;42.708;23.310;2023-08-20T07:44:09;95272.53;;;31.60;39.77
16451;BME280;12243;42.708;23.310;2023-08-20T07:46:38;95279.63;;;31.44;39.99
16451;BME280;12243;42.708;23.310;2023-08-20T07:49:04;95267.84;;;31.06;41.34
16451;BME280;12243;42.708;23.310;2023-08-20T07:51:31;95276.91;;;31.22;40.54
16451;BME280;12243;42.708;23.310;2023-08-20T07:53:58;95277.19;;;31.42;39.98
16451;BME280;12243;42.708;23.310;2023-08-20T07:56:26;95277.44;;;31.68;39.29
16451;BME280;12243;42.708;23.310;2023-08-20T07:58:53;95278.81;;;31.70;39.30
16451;BME280;12243;42.708;23.310;2023-08-20T08:01:19;95266.34;;;31.59;40.05
16451;BME280;12243;42.708;23.310;2023-08-20T08:03:49;95271.72;;;31.59;39.91
16451;BME280;12243;42.708;23.310;2023-08-20T08:06:16;95272.47;;;31.82;39.15
16451;BME280;12243;42.708;23.310;2023-08-20T08:08:43;95265.19;;;31.82;39.43
16451;BME280;12243;42.708;23.310;2023-08-20T08:11:10;95259.00;;;31.82;39.00
16451;BME280;12243;42.708;23.310;2023-08-20T08:13:37;95265.50;;;31.86;39.17
16451;BME280;12243;42.708;23.310;2023-08-20T08:16:04;95270.88;;;31.86;39.08
16451;BME280;12243;42.708;23.310;2023-08-20T08:18:31;95265.28;;;31.65;39.55
16451;BME280;12243;42.708;23.310;2023-08-20T08:20:59;95267.72;;;31.40;39.48
16451;BME280;12243;42.708;23.310;2023-08-20T08:23:26;95266.13;;;31.39;40.16
16451;BME280;12243;42.708;23.310;2023-08-20T08:25:52;95269.66;;;31.44;39.22
16451;BME280;12243;42.708;23.310;2023-08-20T08:28:19;95273.13;;;31.40;39.27
16451;BME280;12243;42.708;23.310;2023-08-20T08:30:46;95262.47;;;31.50;39.22
16451;BME280;12243;42.708;23.310;2023-08-20T08:33:13;95265.66;;;31.47;39.76
16451;BME280;12243;42.708;23.310;2023-08-20T08:35:40;95266.66;;;31.41;38.84
16451;BME280;12243;42.708;23.310;2023-08-20T08:38:08;95272.72;;;31.09;38.84
16451;BME280;12243;42.708;23.310;2023-08-20T08:40:35;95262.09;;;31.19;38.84
16451;BME280;12243;42.708;23.310;2023-08-20T08:43:02;95275.94;;;31.28;38.17
16451;BME280;12243;42.708;23.310;2023-08-20T08:45:29;95260.13;;;31.31;37.96
16451;BME280;12243;42.708;23.310;2023-08-20T08:47:56;95274.09;;;31.12;38.87
16451;BME280;12243;42.708;23.310;2023-08-20T08:50:23;95266.25;;;31.10;38.04
16451;BME280;12243;42.708;23.310;2023-08-20T08:52:51;95262.59;;;31.16;36.80
16451;BME280;12243;42.708;23.310;2023-08-20T08:55:20;95267.28;;;31.04;36.73
16451;BME280;12243;42.708;23.310;2023-08-20T08:57:47;95265.78;;;31.13;36.55
16451;BME280;12243;42.708;23.310;2023-08-20T09:00:15;95265.84;;;31.18;37.45
16451;BME280;12243;42.708;23.310;2023-08-20T09:02:42;95268.88;;;31.27;37.37
16451;BME280;12243;42.708;23.310;2023-08-20T09:05:09;95265.50;;;31.31;36.76
16451;BME280;12243;42.708;23.310;2023-08-20T09:07:42;95259.38;;;31.63;36.03
16451;BME280;12243;42.708;23.310;2023-08-20T09:10:09;95261.59;;;31.98;35.94
16451;BME280;12243;42.708;23.310;2023-08-20T09:12:37;95267.47;;;32.28;35.08
16451;BME280;12243;42.708;23.310;2023-08-20T09:15:09;95260.03;;;32.40;34.58
16451;BME280;12243;42.708;23.310;2023-08-20T09:17:36;95260.50;;;32.64;34.31
16451;BME280;12243;42.708;23.310;2023-08-20T09:20:04;95257.34;;;32.87;33.94
16451;BME280;12243;42.708;23.310;2023-08-20T09:22:31;95255.59;;;33.08;33.47
16451;BME280;12243;42.708;23.310;2023-08-20T09:24:58;95246.84;;;32.86;34.33
16451;BME280;12243;42.708;23.310;2023-08-20T09:27:24;95252.88;;;33.03;33.09
16451;BME280;12243;42.708;23.310;2023-08-20T09:29:55;95264.78;;;33.07;33.43
16451;BME280;12243;42.708;23.310;2023-08-20T09:32:26;95259.38;;;33.07;33.35
16451;BME280;12243;42.708;23.310;2023-08-20T09:34:54;95253.44;;;33.10;31.92
16451;BME280;12243;42.708;23.310;2023-08-20T09:37:22;95266.53;;;32.91;32.70
16451;BME280;12243;42.708;23.310;2023-08-20T09:39:50;95257.75;;;32.59;32.60
16451;BME280;12243;42.708;23.310;2023-08-20T09:42:17;95253.78;;;32.77;32.47
16451;BME280;12243;42.708;23.310;2023-08-20T09:44:45;95265.16;;;32.79;32.18
16451;BME280;12243;42.708;23.310;2023-08-20T09:47:15;95252.84;;;32.98;32.09
16451;BME280;12243;42.708;23.310;2023-08-20T09:49:43;95259.38;;;33.07;31.88
16451;BME280;12243;42.708;23.310;2023-08-20T09:52:12;95241.34;;;32.65;31.44
16451;BME280;12243;42.708;23.310;2023-08-20T09:54:48;95253.31;;;32.42;31.31
16451;BME280;12243;42.708;23.310;2023-08-20T09:57:23;95237.78;;;32.60;31.81
16451;BME280;12243;42.708;23.310;2023-08-20T09:59:53;95241.03;;;32.62;31.40
16451;BME280;12243;42.708;23.310;2023-08-20T10:02:21;95240.56;;;32.33;31.64
16451;BME280;12243;42.708;23.310;2023-08-20T10:04:49;95242.59;;;32.53;31.42
16451;BME280;12243;42.708;23.310;2023-08-20T10:07:17;95247.41;;;32.93;31.82
16451;BME280;12243;42.708;23.310;2023-08-20T10:09:44;95238.69;;;32.81;30.95
16451;BME280;12243;42.708;23.310;2023-08-20T10:12:12;95249.78;;;32.84;31.16
16451;BME280;12243;42.708;23.310;2023-08-20T10:14:40;95258.72;;;32.90;30.90
16451;BME280;12243;42.708;23.310;2023-08-20T10:17:08;95243.81;;;32.77;30.74
16451;BME280;12243;42.708;23.310;2023-08-20T10:19:36;95242.47;;;32.80;30.68
16451;BME280;12243;42.708;23.310;2023-08-20T10:22:04;95248.50;;;32.92;31.40
16451;BME280;12243;42.708;23.310;2023-08-20T10:24:48;95244.03;;;32.60;31.44
16451;BME280;12243;42.708;23.310;2023-08-20T10:27:26;95251.56;;;32.63;31.52
16451;BME280;12243;42.708;23.310;2023-08-20T10:29:54;95245.16;;;32.75;31.17
16451;BME280;12243;42.708;23.310;2023-08-20T10:32:44;95236.56;;;32.83;31.92
16451;BME280;12243;42.708;23.310;2023-08-20T10:35:13;95234.00;;;33.08;31.56
16451;BME280;12243;42.708;23.310;2023-08-20T10:38:02;95236.81;;;33.34;30.71
16451;BME280;12243;42.708;23.310;2023-08-20T10:40:52;95238.94;;;33.32;30.60
16451;BME280;12243;42.708;23.310;2023-08-20T10:43:29;95228.03;;;33.01;30.96
16451;BME280;12243;42.708;23.310;2023-08-20T10:46:03;95231.81;;;33.00;30.64
16451;BME280;12243;42.708;23.310;2023-08-20T10:48:31;95223.78;;;33.20;30.62
16451;BME280;12243;42.708;23.310;2023-08-20T10:51:10;95217.34;;;33.32;30.22
16451;BME280;12243;42.708;23.310;2023-08-20T10:53:37;95212.25;;;33.46;30.26
16451;BME280;12243;42.708;23.310;2023-08-20T10:56:12;95218.06;;;33.07;30.20
16451;BME280;12243;42.708;23.310;2023-08-20T10:58:44;95221.69;;;33.43;30.01
16451;BME280;12243;42.708;23.310;2023-08-20T11:01:19;95218.44;;;33.46;30.24
16451;BME280;12243;42.708;23.310;2023-08-20T11:03:47;95209.31;;;33.57;30.16
16451;BME280;12243;42.708;23.310;2023-08-20T11:06:17;95213.91;;;33.67;29.88
16451;BME280;12243;42.708;23.310;2023-08-20T11:08:44;95208.25;;;33.74;29.61
16451;BME280;12243;42.708;23.310;2023-08-20T11:11:11;95199.88;;;33.55;29.00
16451;BME280;12243;42.708;23.310;2023-08-20T11:13:38;95205.00;;;33.61;29.13
16451;BME280;12243;42.708;23.310;2023-08-20T11:16:06;95185.78;;;33.37;29.82
16451;BME280;12243;42.708;23.310;2023-08-20T11:18:34;95195.28;;;33.55;29.36
16451;BME280;12243;42.708;23.310;2023-08-20T11:21:01;95221.75;;;33.48;29.73
16451;BME280;12243;42.708;23.310;2023-08-20T11:23:29;95203.81;;;33.16;30.29
16451;BME280;12243;42.708;23.310;2023-08-20T11:25:57;95206.56;;;33.42;30.53
16451;BME280;12243;42.708;23.310;2023-08-20T11:28:28;95204.38;;;33.39;29.57
16451;BME280;12243;42.708;23.310;2023-08-20T11:30:55;95199.88;;;33.55;29.58
16451;BME280;12243;42.708;23.310;2023-08-20T11:33:23;95200.69;;;33.96;29.68
16451;BME280;12243;42.708;23.310;2023-08-20T11:35:51;95180.44;;;34.24;29.25
16451;BME280;12243;42.708;23.310;2023-08-20T11:38:20;95187.75;;;34.08;29.60
16451;BME280;12243;42.708;23.310;2023-08-20T11:40:49;95189.88;;;34.06;29.02
16451;BME280;12243;42.708;23.310;2023-08-20T11:43:17;95196.38;;;33.90;29.30
16451;BME280;12243;42.708;23.310;2023-08-20T11:45:45;95192.28;;;33.57;30.34
16451;BME280;12243;42.708;23.310;2023-08-20T11:48:13;95184.75;;;33.89;29.33
16451;BME280;12243;42.708;23.310;2023-08-20T11:50:40;95184.19;;;34.28;29.30
16451;BME280;12243;42.708;23.310;2023-08-20T11:53:08;95181.75;;;34.42;29.39
16451;BME280;12243;42.708;23.310;2023-08-20T11:55:35;95176.84;;;34.49;29.30
16451;BME280;12243;42.708;23.310;2023-08-20T11:58:03;95183.06;;;34.45;29.61
16451;BME280;12243;42.708;23.310;2023-08-20T12:00:31;95173.88;;;34.41;29.69
16451;BME280;12243;42.708;23.310;2023-08-20T12:02:58;95177.06;;;34.73;29.10
16451;BME280;12243;42.708;23.310;2023-08-20T12:05:28;95174.47;;;35.13;29.10
16451;BME280;12243;42.708;23.310;2023-08-20T12:07:57;95175.47;;;35.27;28.66
16451;BME280;12243;42.708;23.310;2023-08-20T12:10:25;95166.38;;;35.07;29.12
16451;BME280;12243;42.708;23.310;2023-08-20T12:12:52;95172.38;;;35.04;29.12
16451;BME280;12243;42.708;23.310;2023-08-20T12:15:24;95161.13;;;34.67;29.56
16451;BME280;12243;42.708;23.310;2023-08-20T12:17:58;95163.88;;;34.51;30.25
16451;BME280;12243;42.708;23.310;2023-08-20T12:20:27;95161.72;;;34.43;30.38
16451;BME280;12243;42.708;23.310;2023-08-20T12:22:55;95162.97;;;34.81;29.91
16451;BME280;12243;42.708;23.310;2023-08-20T12:25:21;95154.19;;;35.00;29.68
16451;BME280;12243;42.708;23.310;2023-08-20T12:27:48;95169.00;;;35.23;29.45
16451;BME280;12243;42.708;23.310;2023-08-20T12:30:15;95154.50;;;34.93;29.45
16451;BME280;12243;42.708;23.310;2023-08-20T12:32:44;95163.16;;;35.05;29.65
16451;BME280;12243;42.708;23.310;2023-08-20T12:35:10;95175.91;;;34.90;29.32
16451;BME280;12243;42.708;23.310;2023-08-20T12:37:37;95158.72;;;34.60;29.69
16451;BME280;12243;42.708;23.310;2023-08-20T12:40:05;95142.19;;;34.61;29.84
16451;BME280;12243;42.708;23.310;2023-08-20T12:42:36;95161.06;;;34.82;29.67
16451;BME280;12243;42.708;23.310;2023-08-20T12:45:05;95146.97;;;34.80;29.63
16451;BME280;12243;42.708;23.310;2023-08-20T12:47:32;95149.81;;;34.49;29.94
16451;BME280;12243;42.708;23.310;2023-08-20T12:50:01;95151.97;;;34.37;30.00
16451;BME280;12243;42.708;23.310;2023-08-20T12:52:29;95147.66;;;34.31;30.47
16451;BME280;12243;42.708;23.310;2023-08-20T12:54:56;95144.41;;;34.39;30.48
16451;BME280;12243;42.708;23.310;2023-08-20T12:57:23;95143.72;;;34.83;29.89